AirNav   Pilot Hours Calculator
 
 1380 users online  

CD32 Castle Lakes Airport
Lake City, Colorado, USA

GOING TO LAKE CITY?


FAA INFORMATION EFFECTIVE 02 DECEMBER 2021

Location

FAA Identifier: CD32
Lat/Long: 37-54-33.0000N 107-21-01.0000W
37-54.550000N 107-21.016667W
37.9091667,-107.3502778
(estimated)
Elevation: 9300 ft. / 2835 m (estimated)
From city: 8 miles S of LAKE CITY, CO
Time zone: UTC -7 (UTC -6 during Daylight Saving Time)
Zip code: 81235

Airport Operations

Airport use: Private use. Permission required prior to landing
Activation date: 03/2003
Control tower: no
ARTCC: DENVER CENTER
FSS: DENVER FLIGHT SERVICE STATION
Attendance: UNATNDD
Wind indicator: yes
Segmented circle: no

Nearby radio navigation aids

VOR radial/distance  VOR name  Freq  Var
HBUr190/35.7BLUE MESA VOR/DME114.9014E

Airport Services

Runway Information

Runway 4/22

Dimensions: 3200 x 50 ft. / 975 x 15 m
Surface: gravel
Operational restrictions: CTN: HIGH PER TAKEOFF RQRD DUE TO 50 FT TREES BOTH ENDS OF RWY.
RUNWAY 4  RUNWAY 22
Traffic pattern: leftleft
Obstructions: 50 ft. trees50 ft. trees

Airport Ownership and Management from official FAA records

Ownership: Privately-owned
Owner: CELIA SWANK
P.O. BOX 114
LAKE CITY, CO 81234
Phone 505-301-5111
Manager: CLAY WORMINGTON
3230 MATTHEW AVE NE
ALBUQUERQUE, NM 87107
Phone 505-301-5111

Airport Operational Statistics

Aircraft based on the field: 1
Single engine airplanes: 1
    

Additional Remarks

A30A-22 CTN DRG LDG, 50 FT ELEV UP SLOPE FM THLD. LAND ON CNTRLN, TREES ALG SIDE OF RWY.
A30A-04 CTN DRG TAKEOFF, 50 FT ELEV DOWN SLOPE FM THLD.
DEER & ELK ON AND INVOF ARPT.
FOR CD CTC DENVER ARTCC AT 303-651-4257.

Instrument Procedures

There are no published instrument procedures at CD32.

Some nearby airports with instrument procedures:

KTEX - Telluride Regional Airport (27 nm W)
KPSO - Stevens Field Airport (40 nm S)
KGUC - Gunnison-Crested Butte Regional Airport (42 nm NE)
KMTJ - Montrose Regional Airport (44 nm NW)
KRCV - Astronaut Kent Rominger Airport (49 nm E)
 
Loc | Ops | Rwys | IFR | FBO | Links
Com | Nav | Svcs | Stats | Notes

AirBoss

 
Area around CD32 (Castle Lakes Airport)
 
Road maps at: MapQuest Bing Google
 
Aerial photo
WARNING: Photo may not be current or correct
Aerial photo of CD32 (Castle Lakes Airport)
Photo taken 11-Sep-2011
looking south.

Do you have a better or more recent aerial photo of Castle Lakes Airport that you would like to share? If so, please send us your photo.

 
Sectional chart

 
Airport distance calculator
Flying to Castle Lakes Airport? Find the distance to fly.

From to CD32

Sunrise and sunset
Times for 03-Dec-2021
 Local
(UTC-7)
 Zulu
(UTC)
Morning civil twilight06:4013:40
Sunrise07:0914:09
Sunset16:4923:49
Evening civil twilight17:1800:18

Current date and time
Zulu (UTC)  03-Dec-2021 19:23:02
Local (UTC-7)  03-Dec-2021 12:23:02
 
METAR
KTEX 
26nm W 
031855Z AUTO 27006KT 10SM CLR 11/M07 A3028 RMK AO2
KCPW 
38nm SE 
031852Z AUTO 26005KT 10SM CLR 05/M08 A3044 RMK AO2
KPSO 
40nm S 
031855Z AUTO 18004KT 10SM CLR 11/M05 A3023 RMK AO2 T01091046
KGUC 
42nm NE 
031856Z AUTO 00000KT 10SM CLR 06/M07 A3027 RMK AO2 SLP264 T00561072
KMTJ 
44nm NW 
031853Z AUTO 05003KT 10SM CLR 10/M04 A3020 RMK AO2 SLP208 T01001039
KRCV 
49nm E 
031855Z AUTO 10003KT 10SM CLR 10/M07 A3024 RMK AO2 T01021075
KDRO 
50nm SW 
031853Z AUTO 00000KT 10SM CLR 10/M05 A3021 RMK AO2 SLP222 T01001050
TAF
KTEX 
26nm W 
031724Z 0318/0418 VRB04KT P6SM FEW250 FM032000 27007KT P6SM FEW250 FM040100 VRB04KT P6SM SKC
NOTAMs
Click for the latest NOTAMs
NOTAMs are issued by the DoD/FAA and will open in a separate window not controlled by AirNav.

 

 
 

Would you like to see your business listed on this page?

 If your business provides an interesting product or service to pilots, flight crews, aircraft, or users of the Castle Lakes Airport, you should consider listing it here.  To start the listing process, click on the button below
 
Add a business
 

Other Pages about Castle Lakes Airport

Update a link
 
Copyright © AirNav, LLC. All rights reserved. Privacy Policy  Contact